KDVN/DVN METAR and TAF weather

Enter ICAO airport designator
Station Type Date Time Source
KDVN METAR 2022/01/29 13:52 UTC NOAA

KDVN 291352Z AUTO 16007KT 10SM OVC060 M11/M16 A3019 RMK AO2 SLP236 T11111156


Station Type Date Time Source
KDVN Decoded METAR 2022/01/29 13:52 UTC NOAA

DAVENPORT MUNICIPAL AIRPORT, IA, United States (KDVN) 41-37N 90-35W 228M
Jan 29, 2022 - 08:52 AM EST / 2022.01.29 1352 UTC
Wind: from the SSE (160 degrees) at 8 MPH (7 KT):0
Visibility: 10 mile(s):0
Sky conditions: overcast
Temperature: 12.0 F (-11.1 C)
Windchill: 0 F (-18 C):1
Dew Point: 3.9 F (-15.6 C)
Relative Humidity: 69%
Pressure (altimeter): 30.19 in. Hg (1022 hPa)
ob: KDVN 291352Z AUTO 16007KT 10SM OVC060 M11/M16 A3019 RMK AO2 SLP236 T11111156
cycle: 14

Station Type Date Time Source
KDVN TAF UTC NOAA

Error!

Example: see airport list